Time;durP1;ratioP1;P1;durP2;ratioP2;P2;SDS_P1;SDS_P2;PMS_P1;PMS_P2;Temp;Humidity;BMP_temperature;BMP_pressure;BME280_temperature;BME280_humidity;BME280_pressure;Samples;Min_cycle;Max_cycle;Signal;HPM_P1;HPM_P2
2023/08/01 00:01:24;;;;;;;3.20;1.17;;;;;;;;;;5095259;28;20771;-79
2023/08/01 00:03:49;;;;;;;1.50;0.70;;;;;;;;;;5095011;28;20407;-80
2023/08/01 00:06:15;;;;;;;1.87;0.77;;;;;;;;;;5095202;28;20410;-80
2023/08/01 00:08:41;;;;;;;2.27;1.40;;;;;;;;;;5095101;28;20207;-80
2023/08/01 00:11:09;;;;;;;2.70;0.73;;;;;;;;;;5095160;28;20415;-80
2023/08/01 00:13:35;;;;;;;0.93;0.43;;;;;;;;;;5095095;28;20198;-79
2023/08/01 00:16:01;;;;;;;2.47;0.73;;;;;;;;;;5094957;28;20404;-79
2023/08/01 00:18:27;;;;;;;1.60;0.80;;;;;;;;;;5094626;28;20248;-79
2023/08/01 00:20:53;;;;;;;1.67;0.80;;;;;;;;;;5094942;28;20413;-79
2023/08/01 00:23:19;;;;;;;2.40;0.83;;;;;;;;;;5094975;28;20173;-79
2023/08/01 00:25:51;;;;;;;1.20;0.40;;;;;;;;;;5094779;28;20491;-80
2023/08/01 00:28:17;;;;;;;1.20;0.77;;;;;;;;;;5094765;28;20491;-80
2023/08/01 00:30:43;;;;;;;2.50;0.33;;;;;;;;;;5094884;28;20777;-80
2023/08/01 00:33:08;;;;;;;2.57;0.60;;;;;;;;;;5094331;28;20412;-80
2023/08/01 00:35:34;;;;;;;2.23;0.90;;;;;;;;;;5094539;28;20183;-80
2023/08/01 00:38:00;;;;;;;2.10;0.47;;;;;;;;;;5094461;28;20172;-80
2023/08/01 00:40:33;;;;;;;2.63;0.83;;;;;;;;;;5094466;28;20213;-80
2023/08/01 00:42:58;;;;;;;2.30;0.90;;;;;;;;;;5094292;28;20624;-80
2023/08/01 00:45:25;;;;;;;1.40;0.93;;;;;;;;;;5094462;28;20415;-80
2023/08/01 00:47:55;;;;;;;1.93;0.93;;;;;;;;;;5092741;28;20424;-80
2023/08/01 00:50:22;;;;;;;1.77;0.50;;;;;;;;;;5094403;28;20433;-79
2023/08/01 00:52:48;;;;;;;1.97;0.90;;;;;;;;;;5094315;28;20930;-79
2023/08/01 00:55:14;;;;;;;2.73;0.90;;;;;;;;;;5094199;28;20423;-79
2023/08/01 00:57:40;;;;;;;2.83;0.50;;;;;;;;;;5094227;28;20784;-79
2023/08/01 01:00:07;;;;;;;2.10;0.80;;;;;;;;;;5092928;28;20426;-79
2023/08/01 01:02:33;;;;;;;1.23;0.60;;;;;;;;;;5093013;28;20818;-79
2023/08/01 01:04:58;;;;;;;1.20;0.60;;;;;;;;;;5094128;28;20420;-79
2023/08/01 01:07:26;;;;;;;2.70;0.40;;;;;;;;;;5093993;28;20415;-79
2023/08/01 01:09:52;;;;;;;3.23;0.30;;;;;;;;;;5093902;28;20805;-79
2023/08/01 01:12:17;;;;;;;2.57;0.40;;;;;;;;;;5094018;28;20896;-79
2023/08/01 01:14:43;;;;;;;3.27;1.00;;;;;;;;;;5093984;28;20431;-79
2023/08/01 01:17:09;;;;;;;2.20;1.07;;;;;;;;;;5093829;28;20420;-79
2023/08/01 01:19:35;;;;;;;1.70;0.50;;;;;;;;;;5093422;28;20414;-79
2023/08/01 01:22:03;;;;;;;2.67;0.80;;;;;;;;;;5093794;28;20183;-79
2023/08/01 01:24:29;;;;;;;2.13;0.50;;;;;;;;;;5093821;28;20447;-79
2023/08/01 01:26:55;;;;;;;2.80;0.80;;;;;;;;;;5093706;28;20448;-80
2023/08/01 01:29:22;;;;;;;5.30;0.80;;;;;;;;;;5093559;28;20512;-79
2023/08/01 01:31:48;;;;;;;1.73;0.60;;;;;;;;;;5093638;28;20441;-79
2023/08/01 01:34:14;;;;;;;1.80;0.40;;;;;;;;;;5093193;28;20424;-79
2023/08/01 01:36:40;;;;;;;2.90;0.97;;;;;;;;;;5093494;28;20527;-79
2023/08/01 01:39:06;;;;;;;2.70;0.90;;;;;;;;;;5093552;28;20498;-79
2023/08/01 01:41:32;;;;;;;1.47;0.63;;;;;;;;;;5093410;28;20202;-79
2023/08/01 01:43:58;;;;;;;3.87;0.90;;;;;;;;;;5093195;28;20550;-79
2023/08/01 01:46:24;;;;;;;1.63;0.60;;;;;;;;;;5093402;28;20410;-79
2023/08/01 01:48:50;;;;;;;1.57;0.73;;;;;;;;;;5092916;28;20467;-79
2023/08/01 01:51:15;;;;;;;1.77;0.73;;;;;;;;;;5093314;28;20401;-79
2023/08/01 01:53:41;;;;;;;2.00;0.73;;;;;;;;;;5093294;28;20654;-79
2023/08/01 01:56:07;;;;;;;2.10;0.90;;;;;;;;;;5093312;28;20174;-79
2023/08/01 01:58:33;;;;;;;1.57;1.13;;;;;;;;;;5093270;28;20258;-79
2023/08/01 02:00:59;;;;;;;2.13;1.30;;;;;;;;;;5088892;28;20457;-79
2023/08/01 02:03:25;;;;;;;1.87;1.20;;;;;;;;;;5071279;28;20465;-79
2023/08/01 02:05:51;;;;;;;3.07;1.30;;;;;;;;;;5072844;28;20550;-79
2023/08/01 02:08:17;;;;;;;2.20;1.20;;;;;;;;;;5072814;28;20197;-80
2023/08/01 02:10:43;;;;;;;4.43;1.37;;;;;;;;;;5074019;28;20902;-79
2023/08/01 02:13:09;;;;;;;2.50;1.60;;;;;;;;;;5073697;28;20229;-79
2023/08/01 02:15:35;;;;;;;2.20;1.40;;;;;;;;;;5077034;28;20579;-79
2023/08/01 02:18:01;;;;;;;3.23;1.30;;;;;;;;;;5076521;28;20169;-80
2023/08/01 02:20:28;;;;;;;2.60;1.63;;;;;;;;;;5076732;28;20461;-79
2023/08/01 02:22:54;;;;;;;2.90;1.60;;;;;;;;;;5076915;28;20171;-79
2023/08/01 02:25:20;;;;;;;3.13;2.17;;;;;;;;;;5076814;28;20410;-80
2023/08/01 02:27:45;;;;;;;2.80;2.03;;;;;;;;;;5084950;28;20537;-79
2023/08/01 02:30:11;;;;;;;2.77;2.10;;;;;;;;;;5096886;28;20217;-80
2023/08/01 02:32:37;;;;;;;2.60;1.87;;;;;;;;;;5096616;28;20179;-79
2023/08/01 02:35:03;;;;;;;5.03;2.30;;;;;;;;;;5096839;28;20412;-79
2023/08/01 02:37:29;;;;;;;3.83;1.83;;;;;;;;;;5096893;28;20436;-79
2023/08/01 02:39:55;;;;;;;4.80;3.70;;;;;;;;;;5095531;28;20850;-80
2023/08/01 02:42:21;;;;;;;4.97;3.53;;;;;;;;;;5095371;28;20248;-79
2023/08/01 02:44:47;;;;;;;4.20;3.53;;;;;;;;;;5096717;28;20174;-80
2023/08/01 02:47:13;;;;;;;3.17;2.87;;;;;;;;;;5093272;28;20656;-80
2023/08/01 02:49:39;;;;;;;4.40;3.50;;;;;;;;;;5087117;28;20225;-79
2023/08/01 02:52:05;;;;;;;4.33;3.93;;;;;;;;;;5095176;28;20222;-79
2023/08/01 02:54:31;;;;;;;3.80;2.73;;;;;;;;;;5095836;28;20171;-79
2023/08/01 02:56:56;;;;;;;3.47;2.63;;;;;;;;;;5095977;28;20466;-80
2023/08/01 02:59:23;;;;;;;4.20;3.20;;;;;;;;;;5096551;28;20237;-79
2023/08/01 03:01:49;;;;;;;4.37;3.97;;;;;;;;;;5095489;28;20412;-80
2023/08/01 03:04:15;;;;;;;3.77;3.33;;;;;;;;;;5095985;28;20506;-79
2023/08/01 03:06:41;;;;;;;4.70;4.20;;;;;;;;;;5096340;28;20632;-79
2023/08/01 03:09:07;;;;;;;4.43;4.07;;;;;;;;;;5096233;28;20567;-79
2023/08/01 03:11:34;;;;;;;4.40;4.00;;;;;;;;;;5096267;28;20423;-79
2023/08/01 03:14:00;;;;;;;5.17;4.27;;;;;;;;;;5096263;28;20477;-79
2023/08/01 03:16:26;;;;;;;9.20;4.50;;;;;;;;;;5096146;28;20411;-79
2023/08/01 03:18:51;;;;;;;4.80;4.30;;;;;;;;;;5095755;28;20177;-80
2023/08/01 03:21:17;;;;;;;4.90;4.33;;;;;;;;;;5096164;28;20177;-79
2023/08/01 03:23:43;;;;;;;5.63;5.03;;;;;;;;;;5096045;28;20173;-79
2023/08/01 03:26:09;;;;;;;5.27;4.43;;;;;;;;;;5095099;28;20495;-79
2023/08/01 03:28:35;;;;;;;4.97;4.47;;;;;;;;;;5095877;28;20733;-79
2023/08/01 03:31:02;;;;;;;6.80;5.17;;;;;;;;;;5095901;28;20413;-80
2023/08/01 03:33:28;;;;;;;9.23;5.20;;;;;;;;;;5095571;28;20323;-80
2023/08/01 03:35:54;;;;;;;5.90;5.30;;;;;;;;;;5095793;28;20508;-79
2023/08/01 03:38:20;;;;;;;6.50;5.07;;;;;;;;;;5094506;28;20436;-79
2023/08/01 03:40:46;;;;;;;7.23;5.10;;;;;;;;;;5095770;28;20407;-79
2023/08/01 03:43:12;;;;;;;6.73;6.17;;;;;;;;;;5095458;28;20467;-80
2023/08/01 03:45:38;;;;;;;5.60;4.93;;;;;;;;;;5095628;28;20413;-79
2023/08/01 03:48:04;;;;;;;5.60;5.00;;;;;;;;;;5095198;28;20537;-79
2023/08/01 03:50:30;;;;;;;5.40;4.90;;;;;;;;;;5095504;28;20997;-79
2023/08/01 03:52:56;;;;;;;5.20;4.20;;;;;;;;;;5095454;28;20493;-80
2023/08/01 03:55:22;;;;;;;5.50;4.93;;;;;;;;;;5095518;28;20269;-79
2023/08/01 03:57:48;;;;;;;7.40;5.63;;;;;;;;;;5095422;28;20170;-79
2023/08/01 04:00:14;;;;;;;6.93;6.23;;;;;;;;;;5095193;28;20420;-79
2023/08/01 04:02:41;;;;;;;5.13;4.13;;;;;;;;;;5094906;28;20223;-79
2023/08/01 04:05:08;;;;;;;6.83;6.13;;;;;;;;;;5095112;28;20939;-79
2023/08/01 04:07:34;;;;;;;6.23;5.63;;;;;;;;;;5095187;28;20411;-79
2023/08/01 04:10:00;;;;;;;6.37;5.47;;;;;;;;;;5093798;28;20489;-79
2023/08/01 04:12:26;;;;;;;6.33;5.70;;;;;;;;;;5095092;28;20177;-79
2023/08/01 04:14:52;;;;;;;8.47;6.93;;;;;;;;;;5095055;28;20207;-79
2023/08/01 04:17:18;;;;;;;7.33;6.47;;;;;;;;;;5094618;28;20258;-79
2023/08/01 04:19:43;;;;;;;7.73;5.97;;;;;;;;;;5094907;28;20173;-79
2023/08/01 04:22:09;;;;;;;6.30;5.70;;;;;;;;;;5094936;28;20579;-79
2023/08/01 04:24:35;;;;;;;6.00;5.40;;;;;;;;;;5094882;28;20176;-79
2023/08/01 04:27:01;;;;;;;9.93;4.90;;;;;;;;;;5094854;28;20169;-80
2023/08/01 04:29:27;;;;;;;8.10;6.10;;;;;;;;;;5094716;28;20213;-80
2023/08/01 04:31:53;;;;;;;5.93;5.10;;;;;;;;;;5094442;28;20179;-80
2023/08/01 04:34:19;;;;;;;6.60;5.60;;;;;;;;;;5094826;28;20417;-80
2023/08/01 04:36:45;;;;;;;9.73;6.87;;;;;;;;;;5094587;28;20446;-80
2023/08/01 04:39:11;;;;;;;6.90;5.67;;;;;;;;;;5094557;28;20749;-80
2023/08/01 04:41:37;;;;;;;6.20;4.60;;;;;;;;;;5094602;28;20180;-80
2023/08/01 04:44:03;;;;;;;5.90;5.30;;;;;;;;;;5094275;28;20969;-80
2023/08/01 04:46:29;;;;;;;6.50;5.77;;;;;;;;;;5094358;28;20170;-80
2023/08/01 04:48:54;;;;;;;6.70;5.53;;;;;;;;;;5093879;28;20517;-80
2023/08/01 04:51:20;;;;;;;6.53;5.93;;;;;;;;;;5094435;28;20422;-80
2023/08/01 04:53:46;;;;;;;5.80;5.30;;;;;;;;;;5094302;28;20529;-80
2023/08/01 04:56:12;;;;;;;6.47;5.03;;;;;;;;;;5094224;28;20186;-79
2023/08/01 04:58:38;;;;;;;5.70;5.20;;;;;;;;;;5094197;28;20420;-80
2023/08/01 05:01:04;;;;;;;5.40;4.73;;;;;;;;;;5094082;28;20170;-80
2023/08/01 05:03:30;;;;;;;7.37;5.53;;;;;;;;;;5093768;28;20215;-80
2023/08/01 05:05:56;;;;;;;6.90;5.73;;;;;;;;;;5094074;28;20416;-80
2023/08/01 05:08:22;;;;;;;8.07;5.70;;;;;;;;;;5093962;28;20240;-80
2023/08/01 05:10:47;;;;;;;6.47;5.40;;;;;;;;;;5094001;28;20196;-80
2023/08/01 05:13:13;;;;;;;6.50;4.20;;;;;;;;;;5093921;28;20174;-80
2023/08/01 05:15:39;;;;;;;6.60;5.90;;;;;;;;;;5093930;28;20416;-80
2023/08/01 05:18:05;;;;;;;5.20;4.70;;;;;;;;;;5093453;28;20405;-80
2023/08/01 05:20:33;;;;;;;5.83;5.23;;;;;;;;;;5093823;28;20413;-79
2023/08/01 05:22:59;;;;;;;6.27;5.23;;;;;;;;;;5093840;28;20171;-80
2023/08/01 05:25:25;;;;;;;9.20;4.90;;;;;;;;;;5093709;28;20416;-80
2023/08/01 05:27:51;;;;;;;6.73;4.97;;;;;;;;;;5093676;28;20547;-80
2023/08/01 05:30:17;;;;;;;5.43;4.90;;;;;;;;;;5093594;28;20562;-80
2023/08/01 05:32:46;;;;;;;6.67;4.20;;;;;;;;;;5093285;28;20315;-80
2023/08/01 05:35:12;;;;;;;6.90;4.80;;;;;;;;;;5093504;28;20644;-79
2023/08/01 05:37:38;;;;;;;5.40;4.90;;;;;;;;;;5093565;28;20439;-81
2023/08/01 05:40:05;;;;;;;4.37;3.97;;;;;;;;;;5093530;28;20199;-80
2023/08/01 05:42:31;;;;;;;6.20;4.90;;;;;;;;;;5093270;28;20232;-80
2023/08/01 05:44:56;;;;;;;5.23;4.00;;;;;;;;;;5093336;28;20407;-80
2023/08/01 05:47:22;;;;;;;5.40;3.93;;;;;;;;;;5092890;28;20770;-80
2023/08/01 05:49:49;;;;;;;6.37;4.27;;;;;;;;;;5093062;28;20215;-80
2023/08/01 05:52:15;;;;;;;4.30;3.90;;;;;;;;;;5092000;28;20931;-80
2023/08/01 05:54:41;;;;;;;6.97;3.70;;;;;;;;;;5093318;28;20930;-80
2023/08/01 05:57:07;;;;;;;6.47;4.17;;;;;;;;;;5093255;28;20419;-79
2023/08/01 05:59:33;;;;;;;5.53;4.67;;;;;;;;;;5093217;28;20257;-80
2023/08/01 06:01:58;;;;;;;4.30;3.53;;;;;;;;;;5092876;28;20445;-80
2023/08/01 06:04:24;;;;;;;4.63;3.20;;;;;;;;;;5093193;28;20784;-80
2023/08/01 06:06:50;;;;;;;3.80;2.60;;;;;;;;;;5093157;28;20764;-81
2023/08/01 06:09:16;;;;;;;6.47;3.40;;;;;;;;;;5092954;28;20483;-81
2023/08/01 06:11:42;;;;;;;6.17;3.10;;;;;;;;;;5093020;28;20218;-80
2023/08/01 06:14:09;;;;;;;4.63;3.10;;;;;;;;;;5091802;28;20184;-81
2023/08/01 06:16:35;;;;;;;5.17;3.80;;;;;;;;;;5092723;28;20463;-81
2023/08/01 06:19:01;;;;;;;5.30;3.40;;;;;;;;;;5093038;28;20909;-81
2023/08/01 06:21:27;;;;;;;4.17;3.07;;;;;;;;;;5093055;28;20222;-80
2023/08/01 06:23:53;;;;;;;5.23;2.80;;;;;;;;;;5091692;28;20745;-80
2023/08/01 06:26:19;;;;;;;3.10;2.27;;;;;;;;;;5092961;28;20407;-80
2023/08/01 06:28:45;;;;;;;4.03;3.30;;;;;;;;;;5092870;28;20210;-78
2023/08/01 06:31:11;;;;;;;4.60;3.37;;;;;;;;;;5092945;28;20647;-80
2023/08/01 06:33:36;;;;;;;10.00;3.50;;;;;;;;;;5091090;28;20175;-80
2023/08/01 06:36:02;;;;;;;4.70;2.80;;;;;;;;;;5092844;28;20242;-80
2023/08/01 06:38:28;;;;;;;7.40;3.30;;;;;;;;;;5092914;28;20401;-80
2023/08/01 06:40:54;;;;;;;7.23;3.70;;;;;;;;;;5092737;28;20409;-81
2023/08/01 06:43:20;;;;;;;5.50;4.00;;;;;;;;;;5092544;28;20787;-81
2023/08/01 06:45:46;;;;;;;5.40;4.47;;;;;;;;;;5092707;28;20178;-80
2023/08/01 06:48:12;;;;;;;8.87;5.73;;;;;;;;;;5092316;28;20175;-80
2023/08/01 06:50:38;;;;;;;10.47;5.80;;;;;;;;;;5092754;28;20581;-80
2023/08/01 06:53:04;;;;;;;5.40;4.37;;;;;;;;;;5092693;28;20483;-79
2023/08/01 06:55:30;;;;;;;6.83;4.00;;;;;;;;;;5092631;28;20417;-81
2023/08/01 06:57:56;;;;;;;5.27;3.33;;;;;;;;;;5092662;28;20768;-79
2023/08/01 07:00:22;;;;;;;5.17;3.50;;;;;;;;;;5092497;28;20190;-80
2023/08/01 07:02:48;;;;;;;6.90;4.40;;;;;;;;;;5096103;28;20572;-81
2023/08/01 07:05:14;;;;;;;4.40;3.60;;;;;;;;;;5096427;28;20409;-80
2023/08/01 07:07:40;;;;;;;4.50;2.80;;;;;;;;;;5096381;28;20529;-80
2023/08/01 07:10:06;;;;;;;5.50;2.17;;;;;;;;;;5096279;28;20820;-81
2023/08/01 07:12:32;;;;;;;5.70;4.17;;;;;;;;;;5096217;28;20174;-79
2023/08/01 07:14:58;;;;;;;3.37;2.30;;;;;;;;;;5096210;28;20474;-79
2023/08/01 07:17:24;;;;;;;3.17;1.63;;;;;;;;;;5095827;28;20245;-80
2023/08/01 07:19:49;;;;;;;3.43;1.77;;;;;;;;;;5096079;28;20619;-80
2023/08/01 07:22:15;;;;;;;3.40;1.47;;;;;;;;;;5096081;28;20173;-80
2023/08/01 07:24:41;;;;;;;2.33;1.20;;;;;;;;;;5096075;28;20182;-80
2023/08/01 07:27:07;;;;;;;4.07;1.60;;;;;;;;;;5095984;28;20467;-80
2023/08/01 07:29:33;;;;;;;3.77;1.67;;;;;;;;;;5095947;28;20470;-80
2023/08/01 07:31:59;;;;;;;3.30;1.77;;;;;;;;;;5095605;28;20203;-80
2023/08/01 07:34:25;;;;;;;4.43;1.70;;;;;;;;;;5095863;28;20180;-80
2023/08/01 07:36:51;;;;;;;3.63;1.50;;;;;;;;;;5095928;28;20532;-80
2023/08/01 07:39:17;;;;;;;2.67;1.33;;;;;;;;;;5095890;28;20179;-79
2023/08/01 07:41:43;;;;;;;3.47;1.20;;;;;;;;;;5094218;28;20207;-79
2023/08/01 07:44:08;;;;;;;2.00;0.53;;;;;;;;;;5095646;28;20423;-79
2023/08/01 07:46:34;;;;;;;3.30;1.43;;;;;;;;;;5095278;28;20182;-79
2023/08/01 07:49:00;;;;;;;4.37;1.40;;;;;;;;;;5094241;28;20205;-80
2023/08/01 07:51:26;;;;;;;6.50;2.13;;;;;;;;;;5094322;28;20181;-79
2023/08/01 07:53:54;;;;;;;5.43;1.50;;;;;;;;;;5095502;28;20378;-79
2023/08/01 07:56:20;;;;;;;3.30;0.80;;;;;;;;;;5095412;28;20413;-79
2023/08/01 07:58:46;;;;;;;4.43;1.10;;;;;;;;;;5094116;28;20421;-80
2023/08/01 08:01:12;;;;;;;3.63;1.60;;;;;;;;;;5095317;28;20425;-80
2023/08/01 08:03:44;;;;;;;4.07;1.40;;;;;;;;;;5094981;28;20413;-80
2023/08/01 08:06:10;;;;;;;3.90;1.37;;;;;;;;;;5095333;28;20505;-80
2023/08/01 08:08:36;;;;;;;3.43;1.00;;;;;;;;;;5095133;28;20900;-80
2023/08/01 08:11:02;;;;;;;2.60;1.50;;;;;;;;;;5094750;28;20460;-79
2023/08/01 08:13:28;;;;;;;3.07;1.23;;;;;;;;;;5095214;28;20744;-80
2023/08/01 08:15:57;;;;;;;4.63;1.93;;;;;;;;;;5093804;28;20406;-78
2023/08/01 08:18:23;;;;;;;7.40;1.70;;;;;;;;;;5094720;28;20419;-78
2023/08/01 08:20:49;;;;;;;4.23;1.57;;;;;;;;;;5094958;28;20411;-77
2023/08/01 08:23:15;;;;;;;6.47;1.80;;;;;;;;;;5094895;28;20410;-77
2023/08/01 08:25:44;;;;;;;7.23;2.00;;;;;;;;;;5093583;28;20414;-79
2023/08/01 08:28:10;;;;;;;2.70;1.33;;;;;;;;;;5094761;28;20395;-80
2023/08/01 08:30:39;;;;;;;4.23;1.40;;;;;;;;;;5094815;28;20417;-79
2023/08/01 08:33:06;;;;;;;4.67;1.40;;;;;;;;;;5094340;28;20895;-79
2023/08/01 08:35:32;;;;;;;4.13;1.80;;;;;;;;;;5094694;28;20418;-80
2023/08/01 08:37:59;;;;;;;6.77;1.70;;;;;;;;;;5093349;28;20695;-80
2023/08/01 08:40:25;;;;;;;5.13;1.93;;;;;;;;;;5094755;28;20410;-80
2023/08/01 08:42:54;;;;;;;6.43;1.70;;;;;;;;;;5094293;28;20946;-80
2023/08/01 08:45:21;;;;;;;3.47;1.60;;;;;;;;;;5094457;28;20911;-79
2023/08/01 08:47:49;;;;;;;4.97;2.50;;;;;;;;;;5094047;28;20407;-79
2023/08/01 08:50:15;;;;;;;5.30;2.73;;;;;;;;;;5094326;28;20973;-79
2023/08/01 08:52:42;;;;;;;4.80;3.23;;;;;;;;;;5094249;28;20961;-80
2023/08/01 08:55:08;;;;;;;3.70;2.23;;;;;;;;;;5094304;28;20410;-78
2023/08/01 08:57:34;;;;;;;5.30;2.70;;;;;;;;;;5094222;28;20165;-79
2023/08/01 09:00:04;;;;;;;5.77;2.90;;;;;;;;;;5094179;28;20478;-76
2023/08/01 09:02:30;;;;;;;4.60;2.50;;;;;;;;;;5093881;28;20418;-76
2023/08/01 09:04:57;;;;;;;9.37;3.40;;;;;;;;;;5094111;28;20403;-76
2023/08/01 09:07:24;;;;;;;12.63;4.67;;;;;;;;;;5094081;28;20406;-76
2023/08/01 09:09:50;;;;;;;6.50;3.73;;;;;;;;;;5094261;28;20583;-80
2023/08/01 09:12:16;;;;;;;5.93;3.00;;;;;;;;;;5093920;28;20434;-79
2023/08/01 09:14:42;;;;;;;4.20;2.67;;;;;;;;;;5094007;28;20542;-79
2023/08/01 09:17:09;;;;;;;5.40;3.10;;;;;;;;;;5093576;28;20168;-78
2023/08/01 09:19:35;;;;;;;4.00;2.53;;;;;;;;;;5093831;28;20419;-79
2023/08/01 09:22:01;;;;;;;4.50;2.67;;;;;;;;;;5093765;28;20399;-77
2023/08/01 09:24:27;;;;;;;6.13;2.87;;;;;;;;;;5093124;28;20410;-76
2023/08/01 09:27:02;;;;;;;3.37;1.80;;;;;;;;;;5093722;28;20405;-78
2023/08/01 09:29:28;;;;;;;3.53;1.80;;;;;;;;;;5093678;28;20256;-79
2023/08/01 09:31:54;;;;;;;7.90;1.40;;;;;;;;;;5093431;28;20415;-81
2023/08/01 09:34:20;;;;;;;2.73;1.47;;;;;;;;;;5093621;28;20807;-79
2023/08/01 09:36:46;;;;;;;4.63;1.50;;;;;;;;;;5093721;28;20505;-81
2023/08/01 09:39:16;;;;;;;2.60;1.40;;;;;;;;;;5093503;28;20180;-78
2023/08/01 09:41:42;;;;;;;2.63;1.90;;;;;;;;;;5093295;28;20505;-79
2023/08/01 09:44:11;;;;;;;3.63;1.60;;;;;;;;;;5093863;28;20458;-78
2023/08/01 09:46:37;;;;;;;2.53;1.17;;;;;;;;;;5093129;28;20252;-79
2023/08/01 09:49:07;;;;;;;1.73;1.17;;;;;;;;;;5093304;28;20552;-78
2023/08/01 09:51:33;;;;;;;2.20;0.93;;;;;;;;;;5093313;28;20516;-78
2023/08/01 09:53:59;;;;;;;1.80;1.00;;;;;;;;;;5093252;28;20505;-76
2023/08/01 09:56:26;;;;;;;2.23;0.80;;;;;;;;;;5093274;28;20573;-76
2023/08/01 09:58:53;;;;;;;2.67;0.77;;;;;;;;;;5093317;28;20164;-76
2023/08/01 10:01:20;;;;;;;2.93;1.27;;;;;;;;;;5092887;28;20415;-79
2023/08/01 10:03:47;;;;;;;3.40;1.00;;;;;;;;;;5093250;28;20406;-77
2023/08/01 10:06:20;;;;;;;1.53;0.60;;;;;;;;;;5093157;28;20914;-80
2023/08/01 10:08:47;;;;;;;2.43;0.43;;;;;;;;;;5093174;28;20930;-77
2023/08/01 10:11:15;;;;;;;3.40;1.00;;;;;;;;;;5093049;28;20422;-77
2023/08/01 10:13:42;;;;;;;0.97;0.70;;;;;;;;;;5093115;28;20485;-77
2023/08/01 10:16:08;;;;;;;1.60;0.90;;;;;;;;;;5092785;28;20406;-78
2023/08/01 10:18:37;;;;;;;1.73;0.40;;;;;;;;;;5093014;28;20434;-78
2023/08/01 10:21:03;;;;;;;2.13;1.00;;;;;;;;;;5093096;28;20485;-79
2023/08/01 10:23:29;;;;;;;2.57;0.70;;;;;;;;;;5092942;28;20438;-79
2023/08/01 10:25:55;;;;;;;1.93;0.83;;;;;;;;;;5091637;28;20180;-79
2023/08/01 10:28:31;;;;;;;2.10;0.57;;;;;;;;;;5092928;28;20412;-81
2023/08/01 10:31:07;;;;;;;1.13;0.40;;;;;;;;;;5092617;28;20479;-81
2023/08/01 10:33:34;;;;;;;2.77;0.60;;;;;;;;;;5091618;28;20421;-81
2023/08/01 10:36:09;;;;;;;3.43;0.97;;;;;;;;;;5096890;28;20940;-81
2023/08/01 10:38:44;;;;;;;2.70;0.57;;;;;;;;;;5097048;28;20812;-81
2023/08/01 10:41:18;;;;;;;1.90;0.43;;;;;;;;;;5095673;28;20405;-81
2023/08/01 10:43:44;;;;;;;2.60;0.93;;;;;;;;;;5096713;28;20462;-80
2023/08/01 10:46:10;;;;;;;2.27;0.33;;;;;;;;;;5096468;28;20398;-81
2023/08/01 10:48:47;;;;;;;0.97;0.40;;;;;;;;;;5096620;28;20480;-81
2023/08/01 10:51:13;;;;;;;3.30;0.90;;;;;;;;;;5096813;28;20180;-81
2023/08/01 10:53:40;;;;;;;3.33;0.67;;;;;;;;;;5096723;28;20402;-81
2023/08/01 10:56:06;;;;;;;1.67;0.20;;;;;;;;;;5096627;28;20168;-80
2023/08/01 10:58:32;;;;;;;3.57;0.60;;;;;;;;;;5096333;28;20414;-80
2023/08/01 11:00:59;;;;;;;1.33;0.30;;;;;;;;;;5096199;28;20176;-82
2023/08/01 11:03:34;;;;;;;1.50;0.40;;;;;;;;;;5095159;28;20891;-81
2023/08/01 11:06:00;;;;;;;1.93;0.50;;;;;;;;;;5096526;28;20418;-79
2023/08/01 11:08:34;;;;;;;1.30;0.47;;;;;;;;;;5096246;28;20745;-78
2023/08/01 11:11:00;;;;;;;2.83;0.37;;;;;;;;;;5096331;28;20467;-78
2023/08/01 11:13:29;;;;;;;2.13;0.60;;;;;;;;;;5096467;28;20409;-78
2023/08/01 11:15:56;;;;;;;1.00;0.40;;;;;;;;;;5095880;28;20414;-78
2023/08/01 11:18:22;;;;;;;1.40;0.40;;;;;;;;;;5096146;28;20455;-79
2023/08/01 11:20:48;;;;;;;5.90;0.40;;;;;;;;;;5096096;28;20410;-79
2023/08/01 11:23:14;;;;;;;3.50;0.87;;;;;;;;;;5096079;28;20544;-79
2023/08/01 11:25:42;;;;;;;1.23;0.33;;;;;;;;;;5096125;28;20200;-77
2023/08/01 11:28:09;;;;;;;1.53;0.50;;;;;;;;;;5096025;28;20519;-79
2023/08/01 11:30:35;;;;;;;0.93;0.20;;;;;;;;;;5094639;28;20566;-80
2023/08/01 11:33:02;;;;;;;1.77;0.20;;;;;;;;;;5095458;28;20474;-80
2023/08/01 11:35:28;;;;;;;2.10;0.20;;;;;;;;;;5095911;28;20456;-79
2023/08/01 11:37:54;;;;;;;0.60;0.20;;;;;;;;;;5095805;28;20429;-80
2023/08/01 11:40:21;;;;;;;3.47;0.33;;;;;;;;;;5095716;28;20445;-81
2023/08/01 11:42:53;;;;;;;3.10;0.30;;;;;;;;;;5095569;28;20577;-82
2023/08/01 11:45:20;;;;;;;2.40;0.50;;;;;;;;;;5095274;28;20423;-81
2023/08/01 11:47:47;;;;;;;1.10;0.40;;;;;;;;;;5094937;28;20460;-81
2023/08/01 11:50:13;;;;;;;1.80;0.20;;;;;;;;;;5095537;28;20472;-79
2023/08/01 11:52:39;;;;;;;3.60;0.30;;;;;;;;;;5095592;28;20944;-80
2023/08/01 11:55:05;;;;;;;1.60;0.20;;;;;;;;;;5094127;28;20426;-80
2023/08/01 11:57:33;;;;;;;2.63;0.40;;;;;;;;;;5094410;28;20263;-80
2023/08/01 11:59:59;;;;;;;1.00;0.23;;;;;;;;;;5095176;28;20471;-79
2023/08/01 12:02:26;;;;;;;1.33;0.30;;;;;;;;;;5095507;28;20410;-80
2023/08/01 12:04:52;;;;;;;0.93;0.20;;;;;;;;;;5095266;28;20271;-80
2023/08/01 12:07:19;;;;;;;1.60;0.30;;;;;;;;;;5095265;28;20466;-79
2023/08/01 12:09:55;;;;;;;1.03;0.20;;;;;;;;;;5095307;28;20479;-79
2023/08/01 12:12:21;;;;;;;0.80;0.20;;;;;;;;;;5095230;28;20485;-80
2023/08/01 12:14:47;;;;;;;2.00;0.40;;;;;;;;;;5095151;28;20501;-80
2023/08/01 12:17:13;;;;;;;1.40;0.43;;;;;;;;;;5094807;28;20406;-79
2023/08/01 12:19:39;;;;;;;0.77;0.30;;;;;;;;;;5095083;28;20233;-79
2023/08/01 12:22:04;;;;;;;2.10;0.20;;;;;;;;;;5095020;28;20169;-78
2023/08/01 12:24:30;;;;;;;0.87;0.30;;;;;;;;;;5094915;28;20169;-76
2023/08/01 12:26:57;;;;;;;0.50;0.20;;;;;;;;;;5094987;28;20735;-79
2023/08/01 12:29:23;;;;;;;0.50;0.20;;;;;;;;;;5093553;28;20461;-79
2023/08/01 12:31:52;;;;;;;0.63;0.20;;;;;;;;;;5094506;28;20417;-78
2023/08/01 12:34:18;;;;;;;0.77;0.20;;;;;;;;;;5094741;28;20402;-78
2023/08/01 12:36:47;;;;;;;1.20;0.33;;;;;;;;;;5094684;28;20900;-80
2023/08/01 12:39:13;;;;;;;2.20;0.57;;;;;;;;;;5094753;28;20168;-80
2023/08/01 12:41:39;;;;;;;2.67;0.20;;;;;;;;;;5094585;28;20413;-81
2023/08/01 12:44:05;;;;;;;1.10;0.20;;;;;;;;;;5094491;28;20995;-80
2023/08/01 12:46:31;;;;;;;1.07;0.20;;;;;;;;;;5094291;28;20829;-80
2023/08/01 12:49:01;;;;;;;0.90;0.20;;;;;;;;;;5094327;28;20463;-81
2023/08/01 12:51:27;;;;;;;1.43;0.30;;;;;;;;;;5094477;28;20849;-81
2023/08/01 12:53:53;;;;;;;0.40;0.20;;;;;;;;;;5094426;28;20427;-81
2023/08/01 12:56:18;;;;;;;0.70;0.20;;;;;;;;;;5093061;28;20188;-81
2023/08/01 12:58:44;;;;;;;1.13;0.30;;;;;;;;;;5093286;28;20410;-81
2023/08/01 13:01:10;;;;;;;0.70;0.27;;;;;;;;;;5093859;28;20168;-80
2023/08/01 13:03:42;;;;;;;1.53;0.30;;;;;;;;;;5094203;28;20179;-82
2023/08/01 13:06:11;;;;;;;0.90;0.30;;;;;;;;;;5094169;28;20172;-80
2023/08/01 13:08:37;;;;;;;2.33;0.33;;;;;;;;;;5094113;28;20409;-80
2023/08/01 13:11:10;;;;;;;0.60;0.20;;;;;;;;;;5094086;28;20517;-79
2023/08/01 13:13:36;;;;;;;1.13;0.20;;;;;;;;;;5094066;28;20510;-81
2023/08/01 13:16:02;;;;;;;2.10;0.20;;;;;;;;;;5093780;28;20519;-81
2023/08/01 13:18:28;;;;;;;1.30;0.30;;;;;;;;;;5093927;28;20177;-81
2023/08/01 13:20:53;;;;;;;1.90;0.47;;;;;;;;;;5093907;28;20484;-79
2023/08/01 13:23:19;;;;;;;1.53;0.30;;;;;;;;;;5094055;28;20818;-80
2023/08/01 13:25:48;;;;;;;1.70;0.40;;;;;;;;;;5093802;28;20455;-80
2023/08/01 13:28:14;;;;;;;1.37;0.20;;;;;;;;;;5093817;28;20180;-80
2023/08/01 13:30:40;;;;;;;1.93;0.20;;;;;;;;;;5093236;28;20527;-77
2023/08/01 13:33:06;;;;;;;1.73;0.20;;;;;;;;;;5093681;28;20168;-78
2023/08/01 13:35:32;;;;;;;0.90;0.30;;;;;;;;;;5093617;28;20172;-78
2023/08/01 13:37:58;;;;;;;1.40;0.23;;;;;;;;;;5093476;28;20176;-80
2023/08/01 13:40:25;;;;;;;0.70;0.20;;;;;;;;;;5093555;28;20552;-81
2023/08/01 13:42:51;;;;;;;1.03;0.20;;;;;;;;;;5093414;28;20231;-82
2023/08/01 13:45:17;;;;;;;0.80;0.20;;;;;;;;;;5090682;28;20430;-81
2023/08/01 13:47:43;;;;;;;1.03;0.20;;;;;;;;;;5081802;28;20195;-80
2023/08/01 13:50:09;;;;;;;1.83;0.30;;;;;;;;;;5082060;28;20986;-80
2023/08/01 13:52:37;;;;;;;0.90;0.20;;;;;;;;;;5093040;28;20921;-78
2023/08/01 13:55:03;;;;;;;1.50;0.27;;;;;;;;;;5093138;28;20505;-77
2023/08/01 13:57:29;;;;;;;0.50;0.20;;;;;;;;;;5093130;28;20449;-79
2023/08/01 13:59:55;;;;;;;1.00;0.20;;;;;;;;;;5091763;28;20839;-78
2023/08/01 14:02:21;;;;;;;1.70;0.30;;;;;;;;;;5092676;28;20449;-79
2023/08/01 14:04:47;;;;;;;0.97;0.30;;;;;;;;;;5092940;28;20169;-78
2023/08/01 14:07:13;;;;;;;1.03;0.30;;;;;;;;;;5092898;28;20172;-80
2023/08/01 14:09:39;;;;;;;0.80;0.20;;;;;;;;;;5092252;28;20267;-79
2023/08/01 14:12:05;;;;;;;0.67;0.30;;;;;;;;;;5092953;28;20478;-78
2023/08/01 14:14:31;;;;;;;1.97;0.30;;;;;;;;;;5092840;28;20402;-78
2023/08/01 14:16:57;;;;;;;1.17;0.30;;;;;;;;;;5092377;28;20768;-79
2023/08/01 14:19:23;;;;;;;0.73;0.20;;;;;;;;;;5092787;28;20182;-79
2023/08/01 14:21:49;;;;;;;0.80;0.20;;;;;;;;;;5092797;28;20496;-80
2023/08/01 14:24:15;;;;;;;0.70;0.30;;;;;;;;;;5088036;28;20933;-79
2023/08/01 14:26:41;;;;;;;1.00;0.33;;;;;;;;;;5081480;28;20183;-79
2023/08/01 14:29:07;;;;;;;2.00;0.40;;;;;;;;;;5072434;28;20461;-77
2023/08/01 14:31:33;;;;;;;1.23;0.30;;;;;;;;;;5072254;28;20898;-78
2023/08/01 14:33:59;;;;;;;2.47;0.53;;;;;;;;;;5072124;28;20191;-78
2023/08/01 14:36:24;;;;;;;1.20;0.60;;;;;;;;;;5071387;28;20248;-78
2023/08/01 14:38:54;;;;;;;1.80;0.30;;;;;;;;;;5072605;28;20179;-78